sensor_id;sensor_type;location;lat;lon;timestamp;P1;durP1;ratioP1;P2;durP2;ratioP2
11328;SDS011;5719;42.714;23.732;2022-09-21T00:01:53;3.72;;;2.05;;
11328;SDS011;5719;42.714;23.732;2022-09-21T00:04:20;1.95;;;1.77;;
11328;SDS011;5719;42.714;23.732;2022-09-21T00:06:47;2.20;;;2.00;;
11328;SDS011;5719;42.714;23.732;2022-09-21T00:09:14;3.75;;;2.20;;
11328;SDS011;5719;42.714;23.732;2022-09-21T00:11:42;3.25;;;2.00;;
11328;SDS011;5719;42.714;23.732;2022-09-21T00:14:10;2.30;;;2.10;;
11328;SDS011;5719;42.714;23.732;2022-09-21T00:16:38;2.85;;;1.73;;
11328;SDS011;5719;42.714;23.732;2022-09-21T00:19:06;1.98;;;1.80;;
11328;SDS011;5719;42.714;23.732;2022-09-21T00:21:33;3.35;;;2.08;;
11328;SDS011;5719;42.714;23.732;2022-09-21T00:24:02;3.95;;;1.92;;
11328;SDS011;5719;42.714;23.732;2022-09-21T00:26:29;3.38;;;2.00;;
11328;SDS011;5719;42.714;23.732;2022-09-21T00:28:59;2.00;;;1.90;;
11328;SDS011;5719;42.714;23.732;2022-09-21T00:31:27;1.95;;;1.80;;
11328;SDS011;5719;42.714;23.732;2022-09-21T00:33:56;1.85;;;1.75;;
11328;SDS011;5719;42.714;23.732;2022-09-21T00:36:24;2.85;;;2.00;;
11328;SDS011;5719;42.714;23.732;2022-09-21T00:38:53;2.00;;;1.90;;
11328;SDS011;5719;42.714;23.732;2022-09-21T00:41:21;3.05;;;2.00;;
11328;SDS011;5719;42.714;23.732;2022-09-21T00:44:09;2.95;;;1.98;;
11328;SDS011;5719;42.714;23.732;2022-09-21T00:46:50;1.77;;;1.67;;
11328;SDS011;5719;42.714;23.732;2022-09-21T00:49:20;1.90;;;1.80;;
11328;SDS011;5719;42.714;23.732;2022-09-21T00:51:48;2.90;;;1.80;;
11328;SDS011;5719;42.714;23.732;2022-09-21T00:54:18;2.20;;;2.00;;
11328;SDS011;5719;42.714;23.732;2022-09-21T00:56:51;2.33;;;2.00;;
11328;SDS011;5719;42.714;23.732;2022-09-21T00:59:20;2.17;;;1.95;;
11328;SDS011;5719;42.714;23.732;2022-09-21T01:01:48;5.80;;;2.20;;
11328;SDS011;5719;42.714;23.732;2022-09-21T01:04:15;3.58;;;2.25;;
11328;SDS011;5719;42.714;23.732;2022-09-21T01:06:43;2.13;;;1.98;;
11328;SDS011;5719;42.714;23.732;2022-09-21T01:09:12;3.03;;;1.98;;
11328;SDS011;5719;42.714;23.732;2022-09-21T01:11:42;2.17;;;1.98;;
11328;SDS011;5719;42.714;23.732;2022-09-21T01:17:17;2.30;;;2.10;;
11328;SDS011;5719;42.714;23.732;2022-09-21T01:19:59;7.53;;;2.20;;
11328;SDS011;5719;42.714;23.732;2022-09-21T01:22:55;2.00;;;1.90;;
11328;SDS011;5719;42.714;23.732;2022-09-21T01:25:33;2.25;;;2.15;;
11328;SDS011;5719;42.714;23.732;2022-09-21T01:28:09;2.10;;;1.90;;
11328;SDS011;5719;42.714;23.732;2022-09-21T01:30:48;3.80;;;1.83;;
11328;SDS011;5719;42.714;23.732;2022-09-21T01:33:20;2.03;;;1.90;;
11328;SDS011;5719;42.714;23.732;2022-09-21T01:35:54;4.32;;;2.15;;
11328;SDS011;5719;42.714;23.732;2022-09-21T01:38:24;4.38;;;2.08;;
11328;SDS011;5719;42.714;23.732;2022-09-21T01:40:54;2.25;;;2.05;;
11328;SDS011;5719;42.714;23.732;2022-09-21T01:43:26;2.17;;;1.98;;
11328;SDS011;5719;42.714;23.732;2022-09-21T01:45:58;2.10;;;2.00;;
11328;SDS011;5719;42.714;23.732;2022-09-21T01:48:29;2.30;;;2.10;;
11328;SDS011;5719;42.714;23.732;2022-09-21T01:51:00;2.45;;;2.25;;
11328;SDS011;5719;42.714;23.732;2022-09-21T01:53:30;1.95;;;1.85;;
11328;SDS011;5719;42.714;23.732;2022-09-21T01:56:03;2.33;;;2.13;;
11328;SDS011;5719;42.714;23.732;2022-09-21T01:58:41;3.05;;;2.10;;
11328;SDS011;5719;42.714;23.732;2022-09-21T02:01:13;2.08;;;1.83;;
11328;SDS011;5719;42.714;23.732;2022-09-21T02:03:44;1.95;;;1.77;;
11328;SDS011;5719;42.714;23.732;2022-09-21T02:06:15;2.35;;;2.15;;
11328;SDS011;5719;42.714;23.732;2022-09-21T02:08:43;2.47;;;2.28;;
11328;SDS011;5719;42.714;23.732;2022-09-21T02:11:11;2.38;;;2.17;;
11328;SDS011;5719;42.714;23.732;2022-09-21T02:13:39;4.53;;;2.10;;
11328;SDS011;5719;42.714;23.732;2022-09-21T02:16:14;2.30;;;2.10;;
11328;SDS011;5719;42.714;23.732;2022-09-21T02:18:58;2.38;;;2.17;;
11328;SDS011;5719;42.714;23.732;2022-09-21T02:21:37;3.53;;;2.30;;
11328;SDS011;5719;42.714;23.732;2022-09-21T02:24:15;3.00;;;2.20;;
11328;SDS011;5719;42.714;23.732;2022-09-21T02:26:52;2.88;;;2.58;;
11328;SDS011;5719;42.714;23.732;2022-09-21T02:29:24;5.22;;;2.38;;
11328;SDS011;5719;42.714;23.732;2022-09-21T02:32:00;2.67;;;2.47;;
11328;SDS011;5719;42.714;23.732;2022-09-21T02:34:32;2.45;;;2.30;;
11328;SDS011;5719;42.714;23.732;2022-09-21T02:37:06;3.38;;;2.45;;
11328;SDS011;5719;42.714;23.732;2022-09-21T02:39:41;2.30;;;2.20;;
11328;SDS011;5719;42.714;23.732;2022-09-21T02:42:15;3.08;;;2.70;;
11328;SDS011;5719;42.714;23.732;2022-09-21T02:44:46;3.05;;;2.50;;
11328;SDS011;5719;42.714;23.732;2022-09-21T02:47:22;3.90;;;2.60;;
11328;SDS011;5719;42.714;23.732;2022-09-21T02:49:56;5.75;;;2.70;;
11328;SDS011;5719;42.714;23.732;2022-09-21T02:52:28;3.10;;;2.60;;
11328;SDS011;5719;42.714;23.732;2022-09-21T02:54:57;4.72;;;2.60;;
11328;SDS011;5719;42.714;23.732;2022-09-21T02:57:24;3.47;;;2.60;;
11328;SDS011;5719;42.714;23.732;2022-09-21T02:59:52;2.80;;;2.60;;
11328;SDS011;5719;42.714;23.732;2022-09-21T03:02:19;3.30;;;2.60;;
11328;SDS011;5719;42.714;23.732;2022-09-21T03:04:47;2.22;;;2.00;;
11328;SDS011;5719;42.714;23.732;2022-09-21T03:07:14;2.58;;;2.35;;
11328;SDS011;5719;42.714;23.732;2022-09-21T03:09:42;2.75;;;2.42;;
11328;SDS011;5719;42.714;23.732;2022-09-21T03:12:09;2.17;;;1.98;;
11328;SDS011;5719;42.714;23.732;2022-09-21T03:14:35;2.30;;;2.10;;
11328;SDS011;5719;42.714;23.732;2022-09-21T03:17:03;5.28;;;2.10;;
11328;SDS011;5719;42.714;23.732;2022-09-21T03:19:30;5.22;;;1.90;;
11328;SDS011;5719;42.714;23.732;2022-09-21T03:21:58;2.58;;;2.10;;
11328;SDS011;5719;42.714;23.732;2022-09-21T03:24:25;3.35;;;2.58;;
11328;SDS011;5719;42.714;23.732;2022-09-21T03:27:09;3.33;;;2.65;;
11328;SDS011;5719;42.714;23.732;2022-09-21T03:29:36;3.08;;;2.60;;
11328;SDS011;5719;42.714;23.732;2022-09-21T03:32:03;2.90;;;2.70;;
11328;SDS011;5719;42.714;23.732;2022-09-21T03:34:30;2.70;;;2.50;;
11328;SDS011;5719;42.714;23.732;2022-09-21T03:36:59;5.80;;;2.70;;
11328;SDS011;5719;42.714;23.732;2022-09-21T03:39:27;3.00;;;2.75;;
11328;SDS011;5719;42.714;23.732;2022-09-21T03:41:54;3.05;;;2.78;;
11328;SDS011;5719;42.714;23.732;2022-09-21T03:44:21;5.25;;;3.55;;
11328;SDS011;5719;42.714;23.732;2022-09-21T03:46:48;3.47;;;3.10;;
11328;SDS011;5719;42.714;23.732;2022-09-21T03:49:15;2.90;;;2.58;;
11328;SDS011;5719;42.714;23.732;2022-09-21T03:51:42;3.03;;;2.80;;
11328;SDS011;5719;42.714;23.732;2022-09-21T03:54:11;2.85;;;2.58;;
11328;SDS011;5719;42.714;23.732;2022-09-21T03:56:38;5.65;;;2.70;;
11328;SDS011;5719;42.714;23.732;2022-09-21T03:59:04;5.90;;;3.90;;
11328;SDS011;5719;42.714;23.732;2022-09-21T04:01:31;7.75;;;3.30;;
11328;SDS011;5719;42.714;23.732;2022-09-21T04:03:58;5.68;;;4.00;;
11328;SDS011;5719;42.714;23.732;2022-09-21T04:06:25;4.50;;;3.58;;
11328;SDS011;5719;42.714;23.732;2022-09-21T04:08:52;5.47;;;3.78;;
11328;SDS011;5719;42.714;23.732;2022-09-21T04:11:21;4.65;;;3.67;;
11328;SDS011;5719;42.714;23.732;2022-09-21T04:13:49;7.88;;;3.67;;
11328;SDS011;5719;42.714;23.732;2022-09-21T04:16:17;4.95;;;3.70;;
11328;SDS011;5719;42.714;23.732;2022-09-21T04:18:44;6.55;;;3.60;;
11328;SDS011;5719;42.714;23.732;2022-09-21T04:21:14;7.00;;;3.60;;
11328;SDS011;5719;42.714;23.732;2022-09-21T04:23:41;4.15;;;3.30;;
11328;SDS011;5719;42.714;23.732;2022-09-21T04:26:17;4.78;;;3.30;;
11328;SDS011;5719;42.714;23.732;2022-09-21T04:28:48;7.05;;;3.70;;
11328;SDS011;5719;42.714;23.732;2022-09-21T04:31:15;6.00;;;3.40;;
11328;SDS011;5719;42.714;23.732;2022-09-21T04:33:42;6.07;;;3.30;;
11328;SDS011;5719;42.714;23.732;2022-09-21T04:36:09;6.60;;;3.60;;
11328;SDS011;5719;42.714;23.732;2022-09-21T04:38:36;3.83;;;3.47;;
11328;SDS011;5719;42.714;23.732;2022-09-21T04:41:04;4.97;;;3.90;;
11328;SDS011;5719;42.714;23.732;2022-09-21T04:43:31;5.43;;;3.05;;
11328;SDS011;5719;42.714;23.732;2022-09-21T04:46:04;10.95;;;3.63;;
11328;SDS011;5719;42.714;23.732;2022-09-21T04:48:32;4.07;;;3.67;;
11328;SDS011;5719;42.714;23.732;2022-09-21T04:50:59;5.95;;;3.70;;
11328;SDS011;5719;42.714;23.732;2022-09-21T04:53:26;3.47;;;3.15;;
11328;SDS011;5719;42.714;23.732;2022-09-21T04:55:53;7.72;;;4.22;;
11328;SDS011;5719;42.714;23.732;2022-09-21T04:58:21;9.00;;;4.50;;
11328;SDS011;5719;42.714;23.732;2022-09-21T05:00:48;6.53;;;3.92;;
11328;SDS011;5719;42.714;23.732;2022-09-21T05:03:17;4.72;;;3.42;;
11328;SDS011;5719;42.714;23.732;2022-09-21T05:05:47;4.05;;;3.70;;
11328;SDS011;5719;42.714;23.732;2022-09-21T05:08:15;3.90;;;3.30;;
11328;SDS011;5719;42.714;23.732;2022-09-21T05:11:03;5.65;;;3.17;;
11328;SDS011;5719;42.714;23.732;2022-09-21T05:13:29;3.85;;;3.55;;
11328;SDS011;5719;42.714;23.732;2022-09-21T05:15:56;3.90;;;3.60;;
11328;SDS011;5719;42.714;23.732;2022-09-21T05:18:24;8.05;;;3.72;;
11328;SDS011;5719;42.714;23.732;2022-09-21T05:20:52;5.90;;;3.92;;
11328;SDS011;5719;42.714;23.732;2022-09-21T05:23:19;6.63;;;4.72;;
11328;SDS011;5719;42.714;23.732;2022-09-21T05:25:46;5.15;;;4.43;;
11328;SDS011;5719;42.714;23.732;2022-09-21T05:28:14;5.05;;;4.50;;
11328;SDS011;5719;42.714;23.732;2022-09-21T05:30:41;8.32;;;5.43;;
11328;SDS011;5719;42.714;23.732;2022-09-21T05:33:11;6.53;;;4.53;;
11328;SDS011;5719;42.714;23.732;2022-09-21T05:35:44;5.10;;;4.38;;
11328;SDS011;5719;42.714;23.732;2022-09-21T05:38:19;6.35;;;5.43;;
11328;SDS011;5719;42.714;23.732;2022-09-21T05:40:47;6.53;;;4.90;;
11328;SDS011;5719;42.714;23.732;2022-09-21T05:43:14;6.53;;;4.90;;
11328;SDS011;5719;42.714;23.732;2022-09-21T05:45:42;11.18;;;4.57;;
11328;SDS011;5719;42.714;23.732;2022-09-21T05:48:12;9.23;;;4.75;;
11328;SDS011;5719;42.714;23.732;2022-09-21T05:50:47;7.55;;;5.25;;
11328;SDS011;5719;42.714;23.732;2022-09-21T05:56:19;6.55;;;4.82;;
11328;SDS011;5719;42.714;23.732;2022-09-21T05:58:55;10.95;;;4.95;;
11328;SDS011;5719;42.714;23.732;2022-09-21T06:01:35;8.10;;;5.07;;
11328;SDS011;5719;42.714;23.732;2022-09-21T06:04:10;6.88;;;5.25;;
11328;SDS011;5719;42.714;23.732;2022-09-21T06:06:39;5.10;;;4.70;;
11328;SDS011;5719;42.714;23.732;2022-09-21T06:09:06;5.50;;;5.00;;
11328;SDS011;5719;42.714;23.732;2022-09-21T06:11:33;5.93;;;4.82;;
11328;SDS011;5719;42.714;23.732;2022-09-21T06:14:00;6.20;;;5.60;;
11328;SDS011;5719;42.714;23.732;2022-09-21T06:16:35;5.72;;;5.10;;
11328;SDS011;5719;42.714;23.732;2022-09-21T06:19:02;5.88;;;5.20;;
11328;SDS011;5719;42.714;23.732;2022-09-21T06:21:29;6.25;;;5.65;;
11328;SDS011;5719;42.714;23.732;2022-09-21T06:23:57;6.40;;;5.82;;
11328;SDS011;5719;42.714;23.732;2022-09-21T06:26:25;11.05;;;5.63;;
11328;SDS011;5719;42.714;23.732;2022-09-21T06:28:53;6.88;;;4.68;;
11328;SDS011;5719;42.714;23.732;2022-09-21T06:31:20;5.47;;;4.93;;
11328;SDS011;5719;42.714;23.732;2022-09-21T06:33:47;5.22;;;4.60;;
11328;SDS011;5719;42.714;23.732;2022-09-21T06:36:14;6.22;;;4.85;;
11328;SDS011;5719;42.714;23.732;2022-09-21T06:38:42;7.93;;;4.85;;
11328;SDS011;5719;42.714;23.732;2022-09-21T06:41:11;6.35;;;5.07;;
11328;SDS011;5719;42.714;23.732;2022-09-21T06:43:38;5.22;;;4.22;;
11328;SDS011;5719;42.714;23.732;2022-09-21T06:46:05;5.15;;;4.65;;
11328;SDS011;5719;42.714;23.732;2022-09-21T06:48:32;5.57;;;4.90;;
11328;SDS011;5719;42.714;23.732;2022-09-21T06:51:00;8.30;;;4.90;;
11328;SDS011;5719;42.714;23.732;2022-09-21T06:53:29;5.15;;;4.65;;
11328;SDS011;5719;42.714;23.732;2022-09-21T06:56:00;5.68;;;4.72;;
11328;SDS011;5719;42.714;23.732;2022-09-21T06:58:30;9.05;;;4.50;;
11328;SDS011;5719;42.714;23.732;2022-09-21T07:01:02;5.68;;;4.45;;
11328;SDS011;5719;42.714;23.732;2022-09-21T07:03:30;4.88;;;3.95;;
11328;SDS011;5719;42.714;23.732;2022-09-21T07:05:57;5.65;;;4.97;;
11328;SDS011;5719;42.714;23.732;2022-09-21T07:08:24;4.63;;;4.22;;
11328;SDS011;5719;42.714;23.732;2022-09-21T07:10:51;6.00;;;4.75;;
11328;SDS011;5719;42.714;23.732;2022-09-21T07:13:18;4.18;;;3.88;;
11328;SDS011;5719;42.714;23.732;2022-09-21T07:15:46;4.47;;;3.38;;
11328;SDS011;5719;42.714;23.732;2022-09-21T07:18:13;5.80;;;3.90;;
11328;SDS011;5719;42.714;23.732;2022-09-21T07:20:40;4.70;;;3.92;;
11328;SDS011;5719;42.714;23.732;2022-09-21T07:23:10;3.85;;;3.42;;
11328;SDS011;5719;42.714;23.732;2022-09-21T07:25:39;4.15;;;3.75;;
11328;SDS011;5719;42.714;23.732;2022-09-21T07:28:06;5.95;;;3.60;;
11328;SDS011;5719;42.714;23.732;2022-09-21T07:30:34;6.80;;;3.53;;
11328;SDS011;5719;42.714;23.732;2022-09-21T07:33:03;4.38;;;3.72;;
11328;SDS011;5719;42.714;23.732;2022-09-21T07:35:30;4.68;;;3.70;;
11328;SDS011;5719;42.714;23.732;2022-09-21T07:37:58;3.50;;;3.20;;
11328;SDS011;5719;42.714;23.732;2022-09-21T07:40:26;4.07;;;3.70;;
11328;SDS011;5719;42.714;23.732;2022-09-21T07:42:56;3.83;;;3.42;;
11328;SDS011;5719;42.714;23.732;2022-09-21T07:45:23;4.80;;;3.30;;
11328;SDS011;5719;42.714;23.732;2022-09-21T07:47:50;3.92;;;3.10;;
11328;SDS011;5719;42.714;23.732;2022-09-21T07:50:20;5.70;;;2.97;;
11328;SDS011;5719;42.714;23.732;2022-09-21T07:52:47;3.45;;;3.15;;
11328;SDS011;5719;42.714;23.732;2022-09-21T07:55:14;6.60;;;3.20;;
11328;SDS011;5719;42.714;23.732;2022-09-21T07:57:41;3.20;;;2.85;;
11328;SDS011;5719;42.714;23.732;2022-09-21T08:02:53;2.78;;;2.58;;
11328;SDS011;5719;42.714;23.732;2022-09-21T08:05:21;3.58;;;2.78;;
11328;SDS011;5719;42.714;23.732;2022-09-21T08:07:48;2.88;;;2.67;;
11328;SDS011;5719;42.714;23.732;2022-09-21T08:10:17;4.03;;;2.40;;
11328;SDS011;5719;42.714;23.732;2022-09-21T08:12:44;3.53;;;2.33;;
11328;SDS011;5719;42.714;23.732;2022-09-21T08:15:11;4.30;;;2.38;;
11328;SDS011;5719;42.714;23.732;2022-09-21T08:17:38;3.53;;;2.17;;
11328;SDS011;5719;42.714;23.732;2022-09-21T08:20:06;4.22;;;2.35;;
11328;SDS011;5719;42.714;23.732;2022-09-21T08:22:35;4.97;;;2.17;;
11328;SDS011;5719;42.714;23.732;2022-09-21T08:25:02;3.08;;;1.75;;
11328;SDS011;5719;42.714;23.732;2022-09-21T08:27:29;4.70;;;1.80;;
11328;SDS011;5719;42.714;23.732;2022-09-21T08:29:56;2.42;;;2.20;;
11328;SDS011;5719;42.714;23.732;2022-09-21T08:32:23;2.20;;;1.67;;
11328;SDS011;5719;42.714;23.732;2022-09-21T08:34:50;1.73;;;1.60;;
11328;SDS011;5719;42.714;23.732;2022-09-21T08:37:17;2.97;;;1.77;;
11328;SDS011;5719;42.714;23.732;2022-09-21T08:39:47;2.67;;;1.65;;
11328;SDS011;5719;42.714;23.732;2022-09-21T08:42:20;4.53;;;1.75;;
11328;SDS011;5719;42.714;23.732;2022-09-21T08:45:04;4.18;;;2.15;;
11328;SDS011;5719;42.714;23.732;2022-09-21T08:47:39;4.20;;;1.90;;
11328;SDS011;5719;42.714;23.732;2022-09-21T08:50:18;2.08;;;1.63;;
11328;SDS011;5719;42.714;23.732;2022-09-21T08:52:53;3.70;;;1.90;;
11328;SDS011;5719;42.714;23.732;2022-09-21T08:55:28;2.60;;;1.65;;
11328;SDS011;5719;42.714;23.732;2022-09-21T08:57:55;2.15;;;1.85;;
11328;SDS011;5719;42.714;23.732;2022-09-21T09:00:22;5.80;;;2.30;;
11328;SDS011;5719;42.714;23.732;2022-09-21T09:02:55;4.03;;;1.98;;
11328;SDS011;5719;42.714;23.732;2022-09-21T09:05:39;4.50;;;1.80;;
11328;SDS011;5719;42.714;23.732;2022-09-21T09:08:19;3.42;;;2.00;;
11328;SDS011;5719;42.714;23.732;2022-09-21T09:11:18;4.38;;;2.00;;
11328;SDS011;5719;42.714;23.732;2022-09-21T09:13:59;2.22;;;1.80;;
11328;SDS011;5719;42.714;23.732;2022-09-21T09:16:42;2.00;;;1.60;;
11328;SDS011;5719;42.714;23.732;2022-09-21T09:19:23;3.28;;;1.60;;
11328;SDS011;5719;42.714;23.732;2022-09-21T09:21:58;2.30;;;1.77;;
11328;SDS011;5719;42.714;23.732;2022-09-21T09:24:31;4.35;;;1.70;;
11328;SDS011;5719;42.714;23.732;2022-09-21T09:27:07;1.55;;;1.45;;
11328;SDS011;5719;42.714;23.732;2022-09-21T09:29:43;3.17;;;1.77;;
11328;SDS011;5719;42.714;23.732;2022-09-21T09:32:16;2.90;;;1.80;;
11328;SDS011;5719;42.714;23.732;2022-09-21T09:34:44;1.65;;;1.48;;
11328;SDS011;5719;42.714;23.732;2022-09-21T09:37:19;4.53;;;1.30;;
11328;SDS011;5719;42.714;23.732;2022-09-21T09:39:52;2.45;;;1.60;;
11328;SDS011;5719;42.714;23.732;2022-09-21T09:45:18;2.78;;;1.17;;
11328;SDS011;5719;42.714;23.732;2022-09-21T09:48:01;1.88;;;1.40;;
11328;SDS011;5719;42.714;23.732;2022-09-21T09:50:39;1.70;;;1.20;;
11328;SDS011;5719;42.714;23.732;2022-09-21T09:53:08;1.80;;;1.30;;
11328;SDS011;5719;42.714;23.732;2022-09-21T09:55:38;0.90;;;0.90;;
11328;SDS011;5719;42.714;23.732;2022-09-21T09:58:14;1.70;;;1.08;;
11328;SDS011;5719;42.714;23.732;2022-09-21T10:00:44;2.03;;;1.00;;
11328;SDS011;5719;42.714;23.732;2022-09-21T10:03:16;2.67;;;0.73;;
11328;SDS011;5719;42.714;23.732;2022-09-21T10:05:45;0.93;;;0.82;;
11328;SDS011;5719;42.714;23.732;2022-09-21T10:11:06;2.05;;;0.80;;
11328;SDS011;5719;42.714;23.732;2022-09-21T10:13:35;0.98;;;0.60;;
11328;SDS011;5719;42.714;23.732;2022-09-21T10:16:05;5.60;;;1.10;;
11328;SDS011;5719;42.714;23.732;2022-09-21T10:18:38;4.22;;;0.60;;
11328;SDS011;5719;42.714;23.732;2022-09-21T10:21:15;4.07;;;0.70;;
11328;SDS011;5719;42.714;23.732;2022-09-21T10:23:45;0.73;;;0.57;;
11328;SDS011;5719;42.714;23.732;2022-09-21T10:26:14;1.05;;;0.60;;
11328;SDS011;5719;42.714;23.732;2022-09-21T10:31:28;0.70;;;0.70;;
11328;SDS011;5719;42.714;23.732;2022-09-21T10:34:04;4.03;;;0.85;;
11328;SDS011;5719;42.714;23.732;2022-09-21T10:36:33;3.05;;;0.95;;
11328;SDS011;5719;42.714;23.732;2022-09-21T10:39:20;0.52;;;0.52;;
11328;SDS011;5719;42.714;23.732;2022-09-21T10:41:50;1.95;;;0.63;;
11328;SDS011;5719;42.714;23.732;2022-09-21T10:44:22;0.77;;;0.75;;
11328;SDS011;5719;42.714;23.732;2022-09-21T10:46:51;3.50;;;0.73;;
11328;SDS011;5719;42.714;23.732;2022-09-21T10:49:21;3.83;;;0.60;;
11328;SDS011;5719;42.714;23.732;2022-09-21T10:51:52;1.48;;;0.55;;
11328;SDS011;5719;42.714;23.732;2022-09-21T10:54:22;1.25;;;0.60;;
11328;SDS011;5719;42.714;23.732;2022-09-21T10:56:52;1.02;;;0.90;;
11328;SDS011;5719;42.714;23.732;2022-09-21T10:59:23;2.05;;;0.60;;
11328;SDS011;5719;42.714;23.732;2022-09-21T11:01:53;2.63;;;0.35;;
11328;SDS011;5719;42.714;23.732;2022-09-21T11:04:27;2.30;;;0.57;;
11328;SDS011;5719;42.714;23.732;2022-09-21T11:07:00;3.92;;;0.50;;
11328;SDS011;5719;42.714;23.732;2022-09-21T11:09:33;3.45;;;0.63;;
11328;SDS011;5719;42.714;23.732;2022-09-21T11:12:09;4.22;;;0.80;;
11328;SDS011;5719;42.714;23.732;2022-09-21T11:14:55;1.35;;;0.70;;
11328;SDS011;5719;42.714;23.732;2022-09-21T11:20:00;1.65;;;0.68;;
11328;SDS011;5719;42.714;23.732;2022-09-21T11:22:44;0.70;;;0.70;;
11328;SDS011;5719;42.714;23.732;2022-09-21T11:25:25;0.65;;;0.65;;
11328;SDS011;5719;42.714;23.732;2022-09-21T11:28:01;0.85;;;0.60;;
11328;SDS011;5719;42.714;23.732;2022-09-21T11:30:41;1.83;;;0.90;;
11328;SDS011;5719;42.714;23.732;2022-09-21T11:38:38;0.77;;;0.75;;
11328;SDS011;5719;42.714;23.732;2022-09-21T11:41:29;1.77;;;0.57;;
11328;SDS011;5719;42.714;23.732;2022-09-21T11:44:12;1.38;;;0.60;;
11328;SDS011;5719;42.714;23.732;2022-09-21T11:46:52;1.63;;;0.70;;
11328;SDS011;5719;42.714;23.732;2022-09-21T11:49:33;5.60;;;0.90;;
11328;SDS011;5719;42.714;23.732;2022-09-21T11:52:13;1.17;;;0.70;;
11328;SDS011;5719;42.714;23.732;2022-09-21T11:54:52;2.90;;;0.90;;
11328;SDS011;5719;42.714;23.732;2022-09-21T11:57:31;4.10;;;0.80;;
11328;SDS011;5719;42.714;23.732;2022-09-21T12:00:06;4.65;;;1.02;;
11328;SDS011;5719;42.714;23.732;2022-09-21T12:05:54;1.35;;;0.75;;
11328;SDS011;5719;42.714;23.732;2022-09-21T12:08:47;2.97;;;0.77;;
11328;SDS011;5719;42.714;23.732;2022-09-21T12:11:27;1.50;;;0.90;;
11328;SDS011;5719;42.714;23.732;2022-09-21T12:14:02;1.55;;;0.80;;
11328;SDS011;5719;42.714;23.732;2022-09-21T12:16:34;1.23;;;0.75;;
11328;SDS011;5719;42.714;23.732;2022-09-21T12:19:08;0.63;;;0.50;;
11328;SDS011;5719;42.714;23.732;2022-09-21T12:21:47;4.20;;;0.63;;
11328;SDS011;5719;42.714;23.732;2022-09-21T12:24:19;0.82;;;0.50;;
11328;SDS011;5719;42.714;23.732;2022-09-21T12:26:50;0.90;;;0.70;;
11328;SDS011;5719;42.714;23.732;2022-09-21T12:29:21;0.40;;;0.40;;
11328;SDS011;5719;42.714;23.732;2022-09-21T12:34:25;0.40;;;0.30;;
11328;SDS011;5719;42.714;23.732;2022-09-21T12:36:59;0.30;;;0.30;;
11328;SDS011;5719;42.714;23.732;2022-09-21T12:39:34;0.30;;;0.30;;
11328;SDS011;5719;42.714;23.732;2022-09-21T12:42:09;0.43;;;0.40;;
11328;SDS011;5719;42.714;23.732;2022-09-21T12:44:47;0.30;;;0.30;;
11328;SDS011;5719;42.714;23.732;2022-09-21T12:47:20;0.30;;;0.30;;
11328;SDS011;5719;42.714;23.732;2022-09-21T12:49:53;0.35;;;0.20;;
11328;SDS011;5719;42.714;23.732;2022-09-21T12:52:25;0.40;;;0.40;;
11328;SDS011;5719;42.714;23.732;2022-09-21T12:54:55;0.20;;;0.20;;
11328;SDS011;5719;42.714;23.732;2022-09-21T12:57:32;0.20;;;0.20;;
11328;SDS011;5719;42.714;23.732;2022-09-21T13:00:09;0.40;;;0.40;;
11328;SDS011;5719;42.714;23.732;2022-09-21T13:02:39;0.20;;;0.20;;
11328;SDS011;5719;42.714;23.732;2022-09-21T13:05:12;0.20;;;0.20;;
11328;SDS011;5719;42.714;23.732;2022-09-21T13:07:54;0.20;;;0.20;;
11328;SDS011;5719;42.714;23.732;2022-09-21T13:10:34;0.60;;;0.20;;
11328;SDS011;5719;42.714;23.732;2022-09-21T13:13:15;0.20;;;0.20;;
11328;SDS011;5719;42.714;23.732;2022-09-21T13:15:48;0.30;;;0.30;;
11328;SDS011;5719;42.714;23.732;2022-09-21T13:18:18;0.17;;;0.17;;
11328;SDS011;5719;42.714;23.732;2022-09-21T13:20:49;0.40;;;0.25;;
11328;SDS011;5719;42.714;23.732;2022-09-21T13:23:22;1.73;;;0.60;;
11328;SDS011;5719;42.714;23.732;2022-09-21T13:34:04;0.40;;;0.25;;
11328;SDS011;5719;42.714;23.732;2022-09-21T13:36:42;0.30;;;0.20;;
11328;SDS011;5719;42.714;23.732;2022-09-21T13:39:16;0.20;;;0.20;;
11328;SDS011;5719;42.714;23.732;2022-09-21T13:41:44;0.22;;;0.22;;
11328;SDS011;5719;42.714;23.732;2022-09-21T13:44:19;1.63;;;0.35;;
11328;SDS011;5719;42.714;23.732;2022-09-21T13:47:01;0.22;;;0.20;;
11328;SDS011;5719;42.714;23.732;2022-09-21T13:52:24;0.30;;;0.20;;
11328;SDS011;5719;42.714;23.732;2022-09-21T13:54:58;0.20;;;0.20;;
11328;SDS011;5719;42.714;23.732;2022-09-21T13:57:30;0.10;;;0.10;;
11328;SDS011;5719;42.714;23.732;2022-09-21T14:00:04;0.43;;;0.20;;
11328;SDS011;5719;42.714;23.732;2022-09-21T14:02:55;0.10;;;0.10;;
11328;SDS011;5719;42.714;23.732;2022-09-21T14:05:25;0.10;;;0.10;;
11328;SDS011;5719;42.714;23.732;2022-09-21T14:07:57;0.20;;;0.20;;
11328;SDS011;5719;42.714;23.732;2022-09-21T14:10:27;0.10;;;0.10;;
11328;SDS011;5719;42.714;23.732;2022-09-21T14:12:57;0.20;;;0.20;;
11328;SDS011;5719;42.714;23.732;2022-09-21T14:15:36;0.25;;;0.25;;
11328;SDS011;5719;42.714;23.732;2022-09-21T14:18:15;0.15;;;0.15;;
11328;SDS011;5719;42.714;23.732;2022-09-21T14:23:41;0.10;;;0.10;;
11328;SDS011;5719;42.714;23.732;2022-09-21T14:26:44;0.20;;;0.20;;
11328;SDS011;5719;42.714;23.732;2022-09-21T14:29:19;0.15;;;0.15;;
11328;SDS011;5719;42.714;23.732;2022-09-21T14:31:51;0.10;;;0.10;;
11328;SDS011;5719;42.714;23.732;2022-09-21T14:34:21;0.28;;;0.20;;
11328;SDS011;5719;42.714;23.732;2022-09-21T14:36:51;0.20;;;0.20;;
11328;SDS011;5719;42.714;23.732;2022-09-21T14:39:22;1.15;;;0.20;;
11328;SDS011;5719;42.714;23.732;2022-09-21T14:41:56;0.20;;;0.20;;
11328;SDS011;5719;42.714;23.732;2022-09-21T14:44:28;0.50;;;0.50;;
11328;SDS011;5719;42.714;23.732;2022-09-21T14:47:05;0.30;;;0.30;;
11328;SDS011;5719;42.714;23.732;2022-09-21T14:50:06;0.40;;;0.40;;
11328;SDS011;5719;42.714;23.732;2022-09-21T14:52:50;0.45;;;0.35;;
11328;SDS011;5719;42.714;23.732;2022-09-21T14:55:29;0.40;;;0.40;;
11328;SDS011;5719;42.714;23.732;2022-09-21T14:58:13;0.50;;;0.50;;
11328;SDS011;5719;42.714;23.732;2022-09-21T15:00:50;0.30;;;0.30;;
11328;SDS011;5719;42.714;23.732;2022-09-21T15:06:23;2.85;;;0.50;;
11328;SDS011;5719;42.714;23.732;2022-09-21T15:09:21;0.60;;;0.60;;
11328;SDS011;5719;42.714;23.732;2022-09-21T15:12:23;0.43;;;0.43;;
11328;SDS011;5719;42.714;23.732;2022-09-21T15:15:01;0.55;;;0.55;;
11328;SDS011;5719;42.714;23.732;2022-09-21T15:17:50;0.77;;;0.73;;
11328;SDS011;5719;42.714;23.732;2022-09-21T15:20:23;0.60;;;0.60;;
11328;SDS011;5719;42.714;23.732;2022-09-21T15:22:52;0.50;;;0.50;;
11328;SDS011;5719;42.714;23.732;2022-09-21T15:25:20;2.42;;;0.50;;
11328;SDS011;5719;42.714;23.732;2022-09-21T15:27:49;0.60;;;0.60;;
11328;SDS011;5719;42.714;23.732;2022-09-21T15:30:19;0.60;;;0.60;;
11328;SDS011;5719;42.714;23.732;2022-09-21T15:32:50;0.47;;;0.47;;
11328;SDS011;5719;42.714;23.732;2022-09-21T15:35:19;2.03;;;0.50;;
11328;SDS011;5719;42.714;23.732;2022-09-21T15:37:48;0.80;;;0.70;;
11328;SDS011;5719;42.714;23.732;2022-09-21T15:40:20;0.50;;;0.50;;
11328;SDS011;5719;42.714;23.732;2022-09-21T15:42:56;0.70;;;0.70;;
11328;SDS011;5719;42.714;23.732;2022-09-21T15:45:30;1.08;;;0.75;;
11328;SDS011;5719;42.714;23.732;2022-09-21T15:48:01;1.00;;;0.87;;
11328;SDS011;5719;42.714;23.732;2022-09-21T15:50:31;0.85;;;0.70;;
11328;SDS011;5719;42.714;23.732;2022-09-21T15:53:00;0.88;;;0.80;;
11328;SDS011;5719;42.714;23.732;2022-09-21T15:55:30;1.52;;;0.85;;
11328;SDS011;5719;42.714;23.732;2022-09-21T15:57:57;0.80;;;0.80;;
11328;SDS011;5719;42.714;23.732;2022-09-21T16:00:27;0.82;;;0.82;;
11328;SDS011;5719;42.714;23.732;2022-09-21T16:03:00;0.95;;;0.95;;
11328;SDS011;5719;42.714;23.732;2022-09-21T16:05:30;2.92;;;0.70;;